Flight Track Log - Related Links

Times and Time Zones

All times are in EDT time to prevent confusion due to time zone crossing. See the ASQ5740 flight status page for this flight to view local times or setup timezone preferences in your user account.

Time Position Orientation Groundspeed Altitude Reporting Facility
EDT Latitude Longitude Course Direction KTS MPH feet Rate Location/Type
Fri 02:14:32 PM 38.9333 -77.5333 233° Southwest 313 360 2,100  Level Potomac TRACON
Fri 02:15:32 PM 38.8500 -77.5333 180° South 266 306 4,800 2,777 Climbing Potomac TRACON
Fri 02:16:33 PM 38.7833 -77.5500 191° South 278 320 7,700 2,607 Climbing Potomac TRACON
Fri 02:17:00 PM 38.6200 -77.8730 226° Southwest  Level Estimated
Fri 02:17:34 PM 38.7000 -77.5500 180° South 292 336 10,100  Level Potomac TRACON
Fri 02:18:00 PM 38.5379 -77.9757 226° Southwest  Level Estimated
Fri 02:18:34 PM 38.6167 -77.5500 180° South 324 373 11,800  Level Potomac TRACON
Fri 02:19:00 PM 38.4557 -78.0782 233° Southwest  Level Estimated
Fri 02:19:41 PM 38.5200 -77.5606 185° South 332 382 13,700  Level Washington Center
Fri 02:20:40 PM 38.4258 -77.5689 184° South 337 388 15,500 1,600 Climbing Washington Center
Fri 02:21:41 PM 38.3519 -77.6383 216° Southwest 331 381 16,900 1,289 Climbing Washington Center
Fri 02:22:41 PM 38.2856 -77.7369 229° Southwest 343 395 18,100 1,373 Climbing Washington Center
Fri 02:23:39 PM 38.2211 -77.8383 231° Southwest 353 406 19,600 1,361 Climbing Washington Center
Fri 02:24:40 PM 38.1544 -77.9392 230° Southwest 371 427 20,800 1,180 Climbing Washington Center
Fri 02:25:41 PM 38.0878 -78.0428 231° Southwest 378 435 22,000 1,000 Climbing Washington Center
Fri 02:26:40 PM 38.0103 -78.1561 229° Southwest 383 441 22,800 500 Climbing Washington Center
Fri 02:27:41 PM 37.9411 -78.2644 231° Southwest 393 452 23,000 101 Climbing Washington Center
Fri 02:28:39 PM 37.8678 -78.3697 229° Southwest 398 458 23,000  Level Washington Center
Fri 02:29:39 PM 37.7967 -78.4722 229° Southwest 398 458 23,000  Level Washington Center
Fri 02:30:40 PM 37.7253 -78.5744 229° Southwest 398 458 23,000  Level Washington Center
Fri 02:31:41 PM 37.6583 -78.6661 227° Southwest 398 458 23,000  Level Washington Center
Fri 02:32:39 PM 37.5867 -78.7708 229° Southwest 398 458 23,000  Level Washington Center
Fri 02:33:39 PM 37.5153 -78.8700 228° Southwest 398 458 23,000 198 Level Washington Center
Fri 02:34:40 PM 37.4414 -78.9739 228° Southwest 398 458 23,400 541 Climbing Washington Center
Fri 02:35:41 PM 37.3633 -79.0803 227° Southwest 409 471 24,100 857 Climbing Washington Center
Fri 02:36:39 PM 37.2764 -79.2017 228° Southwest 422 486 25,100 857 Climbing Washington Center
Fri 02:37:40 PM 37.1997 -79.3153 230° Southwest 430 495 25,800 738 Climbing Washington Center
Fri 02:38:41 PM 37.1231 -79.4289 230° Southwest 430 495 26,600 807 Climbing Washington Center
Fri 02:39:39 PM 37.0444 -79.5447 230° Southwest 430 495 27,400 712 Climbing Washington Center
Fri 02:40:39 PM 36.9675 -79.6578 230° Southwest 435 501 28,000 298 Climbing Washington Center
Fri 02:41:40 PM 36.8992 -79.7606 230° Southwest 440 506 28,000  Level Washington Center
Fri 02:43:31 PM 36.7403 -79.9900 229° Southwest 458 527 28,000  Level Atlanta Center
Fri 02:44:31 PM 36.6586 -80.1081 229° Southwest 453 521 28,000  Level Atlanta Center
Fri 02:45:31 PM 36.5789 -80.2256 230° Southwest 448 516 28,000 -250 Level Atlanta Center
Fri 02:46:31 PM 36.4808 -80.2975 211° Southwest 448 516 27,500 -750 Descending Atlanta Center
Fri 02:47:31 PM 36.3614 -80.3417 197° South 448 516 26,500 -1,000 Descending Atlanta Center
Fri 02:48:31 PM 36.2417 -80.3806 195° South 448 516 25,500 -950 Descending Atlanta Center
Fri 02:49:31 PM 36.1322 -80.4192 196° South 433 498 24,600 -1,050 Descending Atlanta Center
Fri 02:50:31 PM 36.0167 -80.4600 196° South 407 468 23,400 -1,050 Descending Atlanta Center
Fri 02:51:31 PM 35.9236 -80.4950 197° South 396 456 22,500 -1,000 Descending Atlanta Center
Fri 02:52:31 PM 35.8203 -80.5303 195° South 388 447 21,400 -1,250 Descending Atlanta Center
Fri 02:53:31 PM 35.7325 -80.5928 210° Southwest 371 427 20,000 -700 Descending Atlanta Center
Fri 02:54:31 PM 35.6769 -80.7000 237° Southwest 371 427 20,000 -500 Level Atlanta Center
Fri 02:55:31 PM 35.6133 -80.8150 236° Southwest 371 427 19,000 -857 Descending Atlanta Center
Fri 02:55:48 PM 35.5997 -80.8539 247° West 374 430 18,900 -1,200 Descending Atlanta Center
Fri 02:56:31 PM 35.5600 -80.9269 236° Southwest 378 435 17,800 -1,869 Descending Atlanta Center
Fri 02:56:49 PM 35.5439 -80.9581 238° Southwest 367 422 17,000 -2,300 Descending Atlanta Center
Fri 02:57:31 PM 35.5061 -81.0258 236° Southwest 367 422 15,500 -1,869 Descending Atlanta Center
Fri 02:57:50 PM 35.4922 -81.0594 243° Southwest 346 398 15,100 -1,400 Descending Atlanta Center
Fri 02:58:31 PM 35.4564 -81.1269 237° Southwest 361 415 14,100 -1,548 Descending Atlanta Center
Fri 02:58:52 PM 35.4383 -81.1633 239° Southwest 337 388 13,500 -1,100 Descending Atlanta Center
Fri 02:59:31 PM 35.4042 -81.2206 234° Southwest 345 397 13,000 -492 Descending Atlanta Center
Fri 02:59:53 PM 35.3883 -81.2569 242° Southwest 332 382 13,000  Level Atlanta Center
Fri 03:00:31 PM 35.3583 -81.3089 235° Southwest 345 397 13,000 -590 Level Atlanta Center
Fri 03:00:54 PM 35.3383 -81.3553 242° Southwest 339 390 12,400 -1,400 Descending Atlanta Center
Fri 03:01:31 PM 35.3122 -81.4019 236° Southwest 339 390 11,600 -1,423 Descending Atlanta Center
Fri 03:02:31 PM 35.2683 -81.4872 238° Southwest 322 371 10,100 -800 Descending Atlanta Center
Fri 03:03:31 PM 35.2200 -81.5728 235° Southwest 307 353 10,000 -50 Descending Atlanta Center
Fri 03:04:31 PM 35.1672 -81.6481 229° Southwest 302 348 10,000  Level Atlanta Center
Fri 03:05:31 PM 35.1061 -81.7361 230° Southwest 302 348 10,000 -550 Level Atlanta Center
Fri 03:06:31 PM 35.0514 -81.8161 230° Southwest 307 353 8,900 -1,300 Descending Atlanta Center
Fri 03:07:31 PM 34.9983 -81.8886 228° Southwest 302 348 7,400 -1,550 Descending Atlanta Center
Fri 03:08:31 PM 34.9475 -81.9608 229° Southwest 297 342 5,800 -1,450 Descending Atlanta Center
Fri 03:09:31 PM 34.8983 -82.0256 227° Southwest 292 336 4,500 -1,100 Descending Atlanta Center
Fri 03:10:31 PM 34.8517 -82.0975 232° Southwest 286 329 3,600 -750 Descending Atlanta Center
Fri 03:11:31 PM 34.8133 -82.1767 239° Southwest 280 322 3,000 -500 Descending Atlanta Center
Fri 03:12:31 PM 34.8183 -82.2372 276° West 226 260 2,600 -300 Descending Atlanta Center
Fri 03:13:31 PM 34.8192 -82.3056 271° West 226 260 2,400 -200 Descending Atlanta Center

Login

Don't have an account? Register now (free) for customized features, flight alerts, and more!